sensor_id;sensor_type;location;lat;lon;timestamp;P1;durP1;ratioP1;P2;durP2;ratioP2
21170;SDS011;10743;52.160;20.910;2024-02-14T00:00:54;25.33;;;10.60;;
21170;SDS011;10743;52.160;20.910;2024-02-14T00:03:22;28.67;;;10.83;;
21170;SDS011;10743;52.160;20.910;2024-02-14T00:05:50;23.53;;;10.80;;
21170;SDS011;10743;52.160;20.910;2024-02-14T00:08:18;27.60;;;10.80;;
21170;SDS011;10743;52.160;20.910;2024-02-14T00:10:47;28.90;;;11.23;;
21170;SDS011;10743;52.160;20.910;2024-02-14T00:13:15;26.57;;;10.10;;
21170;SDS011;10743;52.160;20.910;2024-02-14T00:15:44;25.77;;;10.30;;
21170;SDS011;10743;52.160;20.910;2024-02-14T00:18:13;25.80;;;10.80;;
21170;SDS011;10743;52.160;20.910;2024-02-14T00:20:42;25.10;;;10.37;;
21170;SDS011;10743;52.160;20.910;2024-02-14T00:23:10;30.67;;;11.27;;
21170;SDS011;10743;52.160;20.910;2024-02-14T00:25:37;30.47;;;11.63;;
21170;SDS011;10743;52.160;20.910;2024-02-14T00:28:05;31.13;;;12.00;;
21170;SDS011;10743;52.160;20.910;2024-02-14T00:30:32;31.77;;;10.93;;
21170;SDS011;10743;52.160;20.910;2024-02-14T00:33:00;28.73;;;12.30;;
21170;SDS011;10743;52.160;20.910;2024-02-14T00:35:28;33.33;;;12.73;;
21170;SDS011;10743;52.160;20.910;2024-02-14T00:37:55;33.77;;;14.00;;
21170;SDS011;10743;52.160;20.910;2024-02-14T00:40:22;57.03;;;19.57;;
21170;SDS011;10743;52.160;20.910;2024-02-14T00:42:50;62.07;;;20.90;;
21170;SDS011;10743;52.160;20.910;2024-02-14T00:45:17;68.30;;;23.80;;
21170;SDS011;10743;52.160;20.910;2024-02-14T00:47:44;46.43;;;17.57;;
21170;SDS011;10743;52.160;20.910;2024-02-14T00:50:11;38.60;;;15.03;;
21170;SDS011;10743;52.160;20.910;2024-02-14T00:52:40;43.63;;;17.50;;
21170;SDS011;10743;52.160;20.910;2024-02-14T00:55:08;41.00;;;18.43;;
21170;SDS011;10743;52.160;20.910;2024-02-14T00:57:35;34.80;;;15.33;;
21170;SDS011;10743;52.160;20.910;2024-02-14T01:00:02;32.20;;;14.27;;
21170;SDS011;10743;52.160;20.910;2024-02-14T01:02:32;32.77;;;12.97;;
21170;SDS011;10743;52.160;20.910;2024-02-14T01:04:59;27.33;;;13.27;;
21170;SDS011;10743;52.160;20.910;2024-02-14T01:07:26;29.80;;;11.80;;
21170;SDS011;10743;52.160;20.910;2024-02-14T01:09:53;28.27;;;12.50;;
21170;SDS011;10743;52.160;20.910;2024-02-14T01:12:20;33.37;;;14.33;;
21170;SDS011;10743;52.160;20.910;2024-02-14T01:14:47;30.37;;;12.90;;
21170;SDS011;10743;52.160;20.910;2024-02-14T01:17:15;25.50;;;11.70;;
21170;SDS011;10743;52.160;20.910;2024-02-14T01:19:42;21.40;;;9.43;;
21170;SDS011;10743;52.160;20.910;2024-02-14T01:22:10;23.83;;;10.63;;
21170;SDS011;10743;52.160;20.910;2024-02-14T01:24:37;28.17;;;12.03;;
21170;SDS011;10743;52.160;20.910;2024-02-14T01:27:04;28.40;;;11.93;;
21170;SDS011;10743;52.160;20.910;2024-02-14T01:29:31;24.87;;;10.77;;
21170;SDS011;10743;52.160;20.910;2024-02-14T01:31:59;25.83;;;11.90;;
21170;SDS011;10743;52.160;20.910;2024-02-14T01:34:26;25.90;;;11.17;;
21170;SDS011;10743;52.160;20.910;2024-02-14T01:36:55;27.80;;;12.13;;
21170;SDS011;10743;52.160;20.910;2024-02-14T01:39:22;24.27;;;10.03;;
21170;SDS011;10743;52.160;20.910;2024-02-14T01:41:49;22.23;;;8.67;;
21170;SDS011;10743;52.160;20.910;2024-02-14T01:44:16;18.30;;;8.80;;
21170;SDS011;10743;52.160;20.910;2024-02-14T01:46:44;17.37;;;7.67;;
21170;SDS011;10743;52.160;20.910;2024-02-14T01:49:11;18.03;;;8.77;;
21170;SDS011;10743;52.160;20.910;2024-02-14T01:51:40;21.13;;;9.23;;
21170;SDS011;10743;52.160;20.910;2024-02-14T01:54:14;21.37;;;8.30;;
21170;SDS011;10743;52.160;20.910;2024-02-14T01:56:43;21.03;;;7.83;;
21170;SDS011;10743;52.160;20.910;2024-02-14T01:59:12;21.10;;;8.17;;
21170;SDS011;10743;52.160;20.910;2024-02-14T02:01:42;22.07;;;7.63;;
21170;SDS011;10743;52.160;20.910;2024-02-14T02:04:09;17.00;;;7.47;;
21170;SDS011;10743;52.160;20.910;2024-02-14T02:06:37;15.07;;;7.87;;
21170;SDS011;10743;52.160;20.910;2024-02-14T02:09:08;17.73;;;8.07;;
21170;SDS011;10743;52.160;20.910;2024-02-14T02:11:51;17.20;;;7.47;;
21170;SDS011;10743;52.160;20.910;2024-02-14T02:14:20;20.20;;;8.00;;
21170;SDS011;10743;52.160;20.910;2024-02-14T02:16:48;19.97;;;8.40;;
21170;SDS011;10743;52.160;20.910;2024-02-14T02:19:18;19.10;;;8.20;;
21170;SDS011;10743;52.160;20.910;2024-02-14T02:21:45;21.77;;;8.00;;
21170;SDS011;10743;52.160;20.910;2024-02-14T02:24:13;20.67;;;8.17;;
21170;SDS011;10743;52.160;20.910;2024-02-14T02:26:40;18.83;;;7.80;;
21170;SDS011;10743;52.160;20.910;2024-02-14T02:29:07;23.77;;;8.67;;
21170;SDS011;10743;52.160;20.910;2024-02-14T02:31:34;22.83;;;8.90;;
21170;SDS011;10743;52.160;20.910;2024-02-14T02:34:02;18.87;;;8.80;;
21170;SDS011;10743;52.160;20.910;2024-02-14T02:36:29;21.97;;;9.33;;
21170;SDS011;10743;52.160;20.910;2024-02-14T02:38:56;26.23;;;9.03;;
21170;SDS011;10743;52.160;20.910;2024-02-14T02:41:24;20.90;;;8.23;;
21170;SDS011;10743;52.160;20.910;2024-02-14T02:43:51;21.90;;;9.13;;
21170;SDS011;10743;52.160;20.910;2024-02-14T02:46:20;20.57;;;8.80;;
21170;SDS011;10743;52.160;20.910;2024-02-14T02:48:48;22.43;;;9.00;;
21170;SDS011;10743;52.160;20.910;2024-02-14T02:51:17;24.23;;;8.03;;
21170;SDS011;10743;52.160;20.910;2024-02-14T02:53:44;20.47;;;8.87;;
21170;SDS011;10743;52.160;20.910;2024-02-14T02:56:11;17.23;;;8.80;;
21170;SDS011;10743;52.160;20.910;2024-02-14T02:58:39;20.43;;;8.70;;
21170;SDS011;10743;52.160;20.910;2024-02-14T03:01:09;18.93;;;7.67;;
21170;SDS011;10743;52.160;20.910;2024-02-14T03:03:36;16.50;;;7.70;;
21170;SDS011;10743;52.160;20.910;2024-02-14T03:06:05;22.27;;;8.40;;
21170;SDS011;10743;52.160;20.910;2024-02-14T03:08:33;22.23;;;9.13;;
21170;SDS011;10743;52.160;20.910;2024-02-14T03:11:04;20.07;;;8.83;;
21170;SDS011;10743;52.160;20.910;2024-02-14T03:13:32;19.50;;;7.57;;
21170;SDS011;10743;52.160;20.910;2024-02-14T03:15:59;18.17;;;8.57;;
21170;SDS011;10743;52.160;20.910;2024-02-14T03:18:26;29.73;;;10.30;;
21170;SDS011;10743;52.160;20.910;2024-02-14T03:20:54;24.30;;;8.57;;
21170;SDS011;10743;52.160;20.910;2024-02-14T03:23:20;26.73;;;8.70;;
21170;SDS011;10743;52.160;20.910;2024-02-14T03:25:48;19.37;;;8.27;;
21170;SDS011;10743;52.160;20.910;2024-02-14T03:28:15;21.20;;;7.87;;
21170;SDS011;10743;52.160;20.910;2024-02-14T03:30:42;21.93;;;8.40;;
21170;SDS011;10743;52.160;20.910;2024-02-14T03:33:10;22.90;;;8.53;;
21170;SDS011;10743;52.160;20.910;2024-02-14T03:35:37;18.93;;;8.60;;
21170;SDS011;10743;52.160;20.910;2024-02-14T03:38:04;18.37;;;8.33;;
21170;SDS011;10743;52.160;20.910;2024-02-14T03:40:34;19.57;;;8.57;;
21170;SDS011;10743;52.160;20.910;2024-02-14T03:43:04;19.80;;;8.67;;
21170;SDS011;10743;52.160;20.910;2024-02-14T03:45:31;17.97;;;8.40;;
21170;SDS011;10743;52.160;20.910;2024-02-14T03:47:58;20.67;;;8.70;;
21170;SDS011;10743;52.160;20.910;2024-02-14T03:50:26;16.20;;;8.50;;
21170;SDS011;10743;52.160;20.910;2024-02-14T03:52:53;21.07;;;8.63;;
21170;SDS011;10743;52.160;20.910;2024-02-14T03:55:21;20.83;;;8.50;;
21170;SDS011;10743;52.160;20.910;2024-02-14T03:57:49;24.80;;;8.33;;
21170;SDS011;10743;52.160;20.910;2024-02-14T04:00:17;16.77;;;8.27;;
21170;SDS011;10743;52.160;20.910;2024-02-14T04:02:45;16.50;;;8.63;;
21170;SDS011;10743;52.160;20.910;2024-02-14T04:05:13;18.90;;;8.87;;
21170;SDS011;10743;52.160;20.910;2024-02-14T04:07:41;19.70;;;8.77;;
21170;SDS011;10743;52.160;20.910;2024-02-14T04:10:10;24.23;;;8.90;;
21170;SDS011;10743;52.160;20.910;2024-02-14T04:12:37;21.77;;;8.93;;
21170;SDS011;10743;52.160;20.910;2024-02-14T04:15:05;18.20;;;8.73;;
21170;SDS011;10743;52.160;20.910;2024-02-14T04:17:33;23.33;;;8.23;;
21170;SDS011;10743;52.160;20.910;2024-02-14T04:20:00;21.43;;;8.57;;
21170;SDS011;10743;52.160;20.910;2024-02-14T04:22:27;22.60;;;8.77;;
21170;SDS011;10743;52.160;20.910;2024-02-14T04:24:54;21.43;;;8.87;;
21170;SDS011;10743;52.160;20.910;2024-02-14T04:27:21;20.83;;;8.30;;
21170;SDS011;10743;52.160;20.910;2024-02-14T04:29:48;20.67;;;8.73;;
21170;SDS011;10743;52.160;20.910;2024-02-14T04:32:15;16.23;;;8.40;;
21170;SDS011;10743;52.160;20.910;2024-02-14T04:34:43;20.17;;;8.40;;
21170;SDS011;10743;52.160;20.910;2024-02-14T04:37:11;22.97;;;8.63;;
21170;SDS011;10743;52.160;20.910;2024-02-14T04:39:40;19.13;;;8.30;;
21170;SDS011;10743;52.160;20.910;2024-02-14T04:42:08;24.50;;;8.60;;
21170;SDS011;10743;52.160;20.910;2024-02-14T04:44:35;22.53;;;8.60;;
21170;SDS011;10743;52.160;20.910;2024-02-14T04:47:03;21.77;;;8.77;;
21170;SDS011;10743;52.160;20.910;2024-02-14T04:49:30;17.20;;;8.00;;
21170;SDS011;10743;52.160;20.910;2024-02-14T04:51:57;21.87;;;8.83;;
21170;SDS011;10743;52.160;20.910;2024-02-14T04:54:25;20.27;;;9.33;;
21170;SDS011;10743;52.160;20.910;2024-02-14T04:56:53;25.30;;;9.53;;
21170;SDS011;10743;52.160;20.910;2024-02-14T04:59:25;23.37;;;9.50;;
21170;SDS011;10743;52.160;20.910;2024-02-14T05:01:52;20.27;;;9.17;;
21170;SDS011;10743;52.160;20.910;2024-02-14T05:04:20;23.37;;;9.43;;
21170;SDS011;10743;52.160;20.910;2024-02-14T05:06:49;20.60;;;8.57;;
21170;SDS011;10743;52.160;20.910;2024-02-14T05:09:19;22.50;;;9.33;;
21170;SDS011;10743;52.160;20.910;2024-02-14T05:11:46;14.63;;;8.00;;
21170;SDS011;10743;52.160;20.910;2024-02-14T05:14:13;15.70;;;8.37;;
21170;SDS011;10743;52.160;20.910;2024-02-14T05:16:40;24.33;;;8.83;;
21170;SDS011;10743;52.160;20.910;2024-02-14T05:19:07;22.63;;;9.57;;
21170;SDS011;10743;52.160;20.910;2024-02-14T05:21:34;18.20;;;9.03;;
21170;SDS011;10743;52.160;20.910;2024-02-14T05:24:01;22.33;;;8.60;;
21170;SDS011;10743;52.160;20.910;2024-02-14T05:26:29;17.27;;;8.30;;
21170;SDS011;10743;52.160;20.910;2024-02-14T05:28:56;19.63;;;9.00;;
21170;SDS011;10743;52.160;20.910;2024-02-14T05:31:25;22.43;;;8.60;;
21170;SDS011;10743;52.160;20.910;2024-02-14T05:34:10;24.50;;;10.73;;
21170;SDS011;10743;52.160;20.910;2024-02-14T05:36:38;31.97;;;12.00;;
21170;SDS011;10743;52.160;20.910;2024-02-14T05:39:05;26.80;;;11.20;;
21170;SDS011;10743;52.160;20.910;2024-02-14T05:41:35;30.83;;;12.13;;
21170;SDS011;10743;52.160;20.910;2024-02-14T05:44:02;31.60;;;11.47;;
21170;SDS011;10743;52.160;20.910;2024-02-14T05:46:29;29.47;;;11.63;;
21170;SDS011;10743;52.160;20.910;2024-02-14T05:48:56;30.40;;;11.13;;
21170;SDS011;10743;52.160;20.910;2024-02-14T05:51:24;27.37;;;11.13;;
21170;SDS011;10743;52.160;20.910;2024-02-14T05:53:51;27.60;;;11.20;;
21170;SDS011;10743;52.160;20.910;2024-02-14T05:56:19;27.60;;;12.00;;
21170;SDS011;10743;52.160;20.910;2024-02-14T05:58:46;31.73;;;11.07;;
21170;SDS011;10743;52.160;20.910;2024-02-14T06:01:13;32.87;;;11.03;;
21170;SDS011;10743;52.160;20.910;2024-02-14T06:03:41;37.60;;;12.40;;
21170;SDS011;10743;52.160;20.910;2024-02-14T06:06:09;34.57;;;12.27;;
21170;SDS011;10743;52.160;20.910;2024-02-14T06:08:36;35.37;;;13.60;;
21170;SDS011;10743;52.160;20.910;2024-02-14T06:11:04;44.03;;;17.03;;
21170;SDS011;10743;52.160;20.910;2024-02-14T06:13:31;53.20;;;19.03;;
21170;SDS011;10743;52.160;20.910;2024-02-14T06:15:58;51.90;;;19.07;;
21170;SDS011;10743;52.160;20.910;2024-02-14T06:18:25;65.00;;;22.33;;
21170;SDS011;10743;52.160;20.910;2024-02-14T06:20:52;73.50;;;24.70;;
21170;SDS011;10743;52.160;20.910;2024-02-14T06:23:19;59.83;;;22.80;;
21170;SDS011;10743;52.160;20.910;2024-02-14T06:25:46;64.00;;;21.87;;
21170;SDS011;10743;52.160;20.910;2024-02-14T06:28:13;52.90;;;19.73;;
21170;SDS011;10743;52.160;20.910;2024-02-14T06:30:40;53.77;;;18.77;;
21170;SDS011;10743;52.160;20.910;2024-02-14T06:33:07;39.73;;;17.03;;
21170;SDS011;10743;52.160;20.910;2024-02-14T06:35:35;31.53;;;13.63;;
21170;SDS011;10743;52.160;20.910;2024-02-14T06:38:02;29.77;;;12.13;;
21170;SDS011;10743;52.160;20.910;2024-02-14T06:40:31;27.87;;;11.77;;
21170;SDS011;10743;52.160;20.910;2024-02-14T06:42:58;31.07;;;13.10;;
21170;SDS011;10743;52.160;20.910;2024-02-14T06:45:27;60.63;;;20.40;;
21170;SDS011;10743;52.160;20.910;2024-02-14T06:47:55;56.53;;;21.23;;
21170;SDS011;10743;52.160;20.910;2024-02-14T06:50:22;51.00;;;19.90;;
21170;SDS011;10743;52.160;20.910;2024-02-14T06:52:52;45.90;;;17.23;;
21170;SDS011;10743;52.160;20.910;2024-02-14T06:55:19;53.40;;;16.70;;
21170;SDS011;10743;52.160;20.910;2024-02-14T06:57:46;38.57;;;13.07;;
21170;SDS011;10743;52.160;20.910;2024-02-14T07:00:14;31.53;;;13.33;;
21170;SDS011;10743;52.160;20.910;2024-02-14T07:02:41;30.73;;;12.73;;
21170;SDS011;10743;52.160;20.910;2024-02-14T07:05:09;29.50;;;12.23;;
21170;SDS011;10743;52.160;20.910;2024-02-14T07:07:39;38.90;;;14.30;;
21170;SDS011;10743;52.160;20.910;2024-02-14T07:10:07;34.07;;;13.57;;
21170;SDS011;10743;52.160;20.910;2024-02-14T07:12:35;33.30;;;12.73;;
21170;SDS011;10743;52.160;20.910;2024-02-14T07:15:05;31.23;;;11.93;;
21170;SDS011;10743;52.160;20.910;2024-02-14T07:17:32;29.53;;;11.10;;
21170;SDS011;10743;52.160;20.910;2024-02-14T07:20:01;31.73;;;12.10;;
21170;SDS011;10743;52.160;20.910;2024-02-14T07:22:29;22.43;;;10.17;;
21170;SDS011;10743;52.160;20.910;2024-02-14T07:24:57;23.23;;;10.17;;
21170;SDS011;10743;52.160;20.910;2024-02-14T07:27:24;22.73;;;10.10;;
21170;SDS011;10743;52.160;20.910;2024-02-14T07:29:51;23.47;;;10.00;;
21170;SDS011;10743;52.160;20.910;2024-02-14T07:32:18;25.03;;;10.80;;
21170;SDS011;10743;52.160;20.910;2024-02-14T07:34:46;34.60;;;11.70;;
21170;SDS011;10743;52.160;20.910;2024-02-14T07:37:13;28.37;;;11.60;;
21170;SDS011;10743;52.160;20.910;2024-02-14T07:39:42;25.47;;;10.47;;
21170;SDS011;10743;52.160;20.910;2024-02-14T07:42:10;27.23;;;10.77;;
21170;SDS011;10743;52.160;20.910;2024-02-14T07:44:38;23.20;;;9.60;;
21170;SDS011;10743;52.160;20.910;2024-02-14T07:47:05;24.83;;;9.43;;
21170;SDS011;10743;52.160;20.910;2024-02-14T07:49:33;24.63;;;10.10;;
21170;SDS011;10743;52.160;20.910;2024-02-14T07:52:00;23.37;;;10.13;;
21170;SDS011;10743;52.160;20.910;2024-02-14T07:54:27;25.37;;;10.67;;
21170;SDS011;10743;52.160;20.910;2024-02-14T07:56:54;24.90;;;10.33;;
21170;SDS011;10743;52.160;20.910;2024-02-14T07:59:21;22.37;;;10.40;;
21170;SDS011;10743;52.160;20.910;2024-02-14T08:01:48;20.47;;;9.27;;
21170;SDS011;10743;52.160;20.910;2024-02-14T08:04:15;21.10;;;9.37;;
21170;SDS011;10743;52.160;20.910;2024-02-14T08:06:44;23.93;;;9.27;;
21170;SDS011;10743;52.160;20.910;2024-02-14T08:09:13;22.13;;;9.67;;
21170;SDS011;10743;52.160;20.910;2024-02-14T08:11:40;20.80;;;9.53;;
21170;SDS011;10743;52.160;20.910;2024-02-14T08:14:07;24.37;;;10.03;;
21170;SDS011;10743;52.160;20.910;2024-02-14T08:16:35;25.97;;;10.00;;
21170;SDS011;10743;52.160;20.910;2024-02-14T08:19:02;22.67;;;9.60;;
21170;SDS011;10743;52.160;20.910;2024-02-14T08:21:30;20.63;;;9.60;;
21170;SDS011;10743;52.160;20.910;2024-02-14T08:23:58;24.33;;;9.63;;
21170;SDS011;10743;52.160;20.910;2024-02-14T08:26:27;21.83;;;9.10;;
21170;SDS011;10743;52.160;20.910;2024-02-14T08:28:55;17.97;;;7.73;;
21170;SDS011;10743;52.160;20.910;2024-02-14T08:31:22;21.17;;;8.47;;
21170;SDS011;10743;52.160;20.910;2024-02-14T08:33:49;26.47;;;10.33;;
21170;SDS011;10743;52.160;20.910;2024-02-14T08:36:17;22.40;;;8.90;;
21170;SDS011;10743;52.160;20.910;2024-02-14T08:38:46;24.13;;;9.53;;
21170;SDS011;10743;52.160;20.910;2024-02-14T08:41:14;34.37;;;13.73;;
21170;SDS011;10743;52.160;20.910;2024-02-14T08:43:41;23.40;;;10.80;;
21170;SDS011;10743;52.160;20.910;2024-02-14T08:46:13;16.83;;;7.23;;
21170;SDS011;10743;52.160;20.910;2024-02-14T08:48:41;17.63;;;7.20;;
21170;SDS011;10743;52.160;20.910;2024-02-14T08:51:15;15.93;;;7.80;;
21170;SDS011;10743;52.160;20.910;2024-02-14T08:53:44;13.67;;;7.23;;
21170;SDS011;10743;52.160;20.910;2024-02-14T08:56:14;18.53;;;7.93;;
21170;SDS011;10743;52.160;20.910;2024-02-14T08:58:41;18.33;;;7.23;;
21170;SDS011;10743;52.160;20.910;2024-02-14T09:01:10;17.27;;;7.20;;
21170;SDS011;10743;52.160;20.910;2024-02-14T09:03:44;18.87;;;7.97;;
21170;SDS011;10743;52.160;20.910;2024-02-14T09:06:16;16.47;;;7.83;;
21170;SDS011;10743;52.160;20.910;2024-02-14T09:08:45;12.97;;;6.17;;
21170;SDS011;10743;52.160;20.910;2024-02-14T09:11:13;11.37;;;6.33;;
21170;SDS011;10743;52.160;20.910;2024-02-14T09:13:40;16.80;;;5.97;;
21170;SDS011;10743;52.160;20.910;2024-02-14T09:16:07;12.63;;;6.20;;
21170;SDS011;10743;52.160;20.910;2024-02-14T09:18:35;13.57;;;5.70;;
21170;SDS011;10743;52.160;20.910;2024-02-14T09:21:03;12.57;;;5.47;;
21170;SDS011;10743;52.160;20.910;2024-02-14T09:23:32;9.93;;;4.80;;
21170;SDS011;10743;52.160;20.910;2024-02-14T09:26:00;12.27;;;5.00;;
21170;SDS011;10743;52.160;20.910;2024-02-14T09:28:28;10.33;;;4.07;;
21170;SDS011;10743;52.160;20.910;2024-02-14T09:30:55;8.83;;;4.40;;
21170;SDS011;10743;52.160;20.910;2024-02-14T09:33:22;10.77;;;4.27;;
21170;SDS011;10743;52.160;20.910;2024-02-14T09:35:50;8.73;;;3.93;;
21170;SDS011;10743;52.160;20.910;2024-02-14T09:38:20;10.93;;;4.10;;
21170;SDS011;10743;52.160;20.910;2024-02-14T09:40:48;9.00;;;3.93;;
21170;SDS011;10743;52.160;20.910;2024-02-14T09:46:07;10.10;;;4.17;;
21170;SDS011;10743;52.160;20.910;2024-02-14T09:48:35;8.90;;;3.47;;
21170;SDS011;10743;52.160;20.910;2024-02-14T09:51:04;7.13;;;3.53;;
21170;SDS011;10743;52.160;20.910;2024-02-14T09:53:34;12.87;;;5.13;;
21170;SDS011;10743;52.160;20.910;2024-02-14T09:56:04;20.13;;;6.97;;
21170;SDS011;10743;52.160;20.910;2024-02-14T09:58:32;20.30;;;8.40;;
21170;SDS011;10743;52.160;20.910;2024-02-14T10:01:01;10.47;;;3.10;;
21170;SDS011;10743;52.160;20.910;2024-02-14T10:03:28;6.60;;;3.43;;
21170;SDS011;10743;52.160;20.910;2024-02-14T10:05:55;6.67;;;3.07;;
21170;SDS011;10743;52.160;20.910;2024-02-14T10:08:22;9.00;;;3.43;;
21170;SDS011;10743;52.160;20.910;2024-02-14T10:10:49;14.67;;;6.33;;
21170;SDS011;10743;52.160;20.910;2024-02-14T10:13:19;12.67;;;4.90;;
21170;SDS011;10743;52.160;20.910;2024-02-14T10:15:46;12.83;;;3.77;;
21170;SDS011;10743;52.160;20.910;2024-02-14T10:18:14;10.13;;;4.30;;
21170;SDS011;10743;52.160;20.910;2024-02-14T10:20:55;4.13;;;2.20;;
21170;SDS011;10743;52.160;20.910;2024-02-14T10:23:23;8.10;;;2.80;;
21170;SDS011;10743;52.160;20.910;2024-02-14T10:25:52;12.13;;;4.90;;
21170;SDS011;10743;52.160;20.910;2024-02-14T10:28:20;6.03;;;2.50;;
21170;SDS011;10743;52.160;20.910;2024-02-14T10:30:58;7.43;;;3.00;;
21170;SDS011;10743;52.160;20.910;2024-02-14T10:33:29;8.67;;;3.80;;
21170;SDS011;10743;52.160;20.910;2024-02-14T10:35:57;13.73;;;6.53;;
21170;SDS011;10743;52.160;20.910;2024-02-14T10:38:30;6.43;;;2.37;;
21170;SDS011;10743;52.160;20.910;2024-02-14T10:41:01;6.47;;;2.50;;
21170;SDS011;10743;52.160;20.910;2024-02-14T10:43:29;6.80;;;2.23;;
21170;SDS011;10743;52.160;20.910;2024-02-14T10:46:00;7.73;;;3.07;;
21170;SDS011;10743;52.160;20.910;2024-02-14T10:48:34;7.53;;;3.60;;
21170;SDS011;10743;52.160;20.910;2024-02-14T10:51:05;6.47;;;3.20;;
21170;SDS011;10743;52.160;20.910;2024-02-14T10:53:36;10.47;;;4.13;;
21170;SDS011;10743;52.160;20.910;2024-02-14T10:56:13;8.53;;;3.40;;
21170;SDS011;10743;52.160;20.910;2024-02-14T10:58:46;5.27;;;2.63;;
21170;SDS011;10743;52.160;20.910;2024-02-14T11:01:15;6.37;;;2.77;;
21170;SDS011;10743;52.160;20.910;2024-02-14T11:03:43;5.93;;;2.97;;
21170;SDS011;10743;52.160;20.910;2024-02-14T11:06:15;4.07;;;1.90;;
21170;SDS011;10743;52.160;20.910;2024-02-14T11:09:00;4.78;;;1.83;;
21170;SDS011;10743;52.160;20.910;2024-02-14T11:11:37;4.43;;;2.37;;
21170;SDS011;10743;52.160;20.910;2024-02-14T11:14:04;6.78;;;2.25;;
21170;SDS011;10743;52.160;20.910;2024-02-14T11:16:33;6.25;;;2.10;;
21170;SDS011;10743;52.160;20.910;2024-02-14T11:19:07;4.93;;;2.20;;
21170;SDS011;10743;52.160;20.910;2024-02-14T11:21:40;5.03;;;2.53;;
21170;SDS011;10743;52.160;20.910;2024-02-14T11:24:13;4.87;;;2.53;;
21170;SDS011;10743;52.160;20.910;2024-02-14T11:26:48;5.77;;;1.90;;
21170;SDS011;10743;52.160;20.910;2024-02-14T11:29:18;4.83;;;2.20;;
21170;SDS011;10743;52.160;20.910;2024-02-14T11:31:58;2.97;;;1.98;;
21170;SDS011;10743;52.160;20.910;2024-02-14T11:34:27;4.72;;;2.60;;
21170;SDS011;10743;52.160;20.910;2024-02-14T11:36:55;2.70;;;1.90;;
21170;SDS011;10743;52.160;20.910;2024-02-14T11:39:22;10.00;;;3.17;;
21170;SDS011;10743;52.160;20.910;2024-02-14T11:41:49;8.30;;;3.80;;
21170;SDS011;10743;52.160;20.910;2024-02-14T11:44:18;3.73;;;2.43;;
21170;SDS011;10743;52.160;20.910;2024-02-14T11:46:49;5.20;;;1.87;;
21170;SDS011;10743;52.160;20.910;2024-02-14T11:49:16;3.17;;;1.73;;
21170;SDS011;10743;52.160;20.910;2024-02-14T11:51:43;4.82;;;2.28;;
21170;SDS011;10743;52.160;20.910;2024-02-14T11:54:10;9.77;;;3.87;;
21170;SDS011;10743;52.160;20.910;2024-02-14T11:56:38;8.83;;;4.13;;
21170;SDS011;10743;52.160;20.910;2024-02-14T11:59:06;6.40;;;2.63;;
21170;SDS011;10743;52.160;20.910;2024-02-14T12:01:35;4.03;;;1.80;;
21170;SDS011;10743;52.160;20.910;2024-02-14T12:04:05;3.03;;;2.00;;
21170;SDS011;10743;52.160;20.910;2024-02-14T12:06:36;5.90;;;2.10;;
21170;SDS011;10743;52.160;20.910;2024-02-14T12:09:08;5.38;;;2.30;;
21170;SDS011;10743;52.160;20.910;2024-02-14T12:11:36;3.57;;;1.90;;
21170;SDS011;10743;52.160;20.910;2024-02-14T12:14:07;5.40;;;2.00;;
21170;SDS011;10743;52.160;20.910;2024-02-14T12:16:36;7.55;;;2.40;;
21170;SDS011;10743;52.160;20.910;2024-02-14T12:19:06;4.80;;;1.83;;
21170;SDS011;10743;52.160;20.910;2024-02-14T12:21:37;3.63;;;2.28;;
21170;SDS011;10743;52.160;20.910;2024-02-14T12:24:09;7.68;;;2.67;;
21170;SDS011;10743;52.160;20.910;2024-02-14T12:26:38;4.60;;;2.27;;
21170;SDS011;10743;52.160;20.910;2024-02-14T12:29:06;6.27;;;3.43;;
21170;SDS011;10743;52.160;20.910;2024-02-14T12:31:35;5.60;;;2.43;;
21170;SDS011;10743;52.160;20.910;2024-02-14T12:34:03;11.07;;;6.00;;
21170;SDS011;10743;52.160;20.910;2024-02-14T12:36:34;10.98;;;6.20;;
21170;SDS011;10743;52.160;20.910;2024-02-14T12:39:01;8.77;;;4.90;;
21170;SDS011;10743;52.160;20.910;2024-02-14T12:41:30;9.10;;;4.40;;
21170;SDS011;10743;52.160;20.910;2024-02-14T12:43:58;6.20;;;3.07;;
21170;SDS011;10743;52.160;20.910;2024-02-14T12:46:27;7.27;;;2.30;;
21170;SDS011;10743;52.160;20.910;2024-02-14T12:48:54;3.95;;;2.20;;
21170;SDS011;10743;52.160;20.910;2024-02-14T12:51:21;6.17;;;2.30;;
21170;SDS011;10743;52.160;20.910;2024-02-14T12:53:48;4.97;;;2.27;;
21170;SDS011;10743;52.160;20.910;2024-02-14T12:56:16;5.83;;;2.20;;
21170;SDS011;10743;52.160;20.910;2024-02-14T12:58:43;7.43;;;2.63;;
21170;SDS011;10743;52.160;20.910;2024-02-14T13:01:10;3.13;;;1.87;;
21170;SDS011;10743;52.160;20.910;2024-02-14T13:03:38;7.00;;;3.10;;
21170;SDS011;10743;52.160;20.910;2024-02-14T13:06:05;6.97;;;2.70;;
21170;SDS011;10743;52.160;20.910;2024-02-14T13:08:32;5.13;;;2.10;;
21170;SDS011;10743;52.160;20.910;2024-02-14T13:11:00;4.63;;;2.22;;
21170;SDS011;10743;52.160;20.910;2024-02-14T13:13:27;4.87;;;2.00;;
21170;SDS011;10743;52.160;20.910;2024-02-14T13:15:56;2.55;;;1.90;;
21170;SDS011;10743;52.160;20.910;2024-02-14T13:18:23;5.40;;;2.57;;
21170;SDS011;10743;52.160;20.910;2024-02-14T13:20:51;7.30;;;2.53;;
21170;SDS011;10743;52.160;20.910;2024-02-14T13:23:26;4.37;;;2.40;;
21170;SDS011;10743;52.160;20.910;2024-02-14T13:25:53;5.23;;;2.50;;
21170;SDS011;10743;52.160;20.910;2024-02-14T13:28:20;4.70;;;2.23;;
21170;SDS011;10743;52.160;20.910;2024-02-14T13:30:47;6.50;;;2.83;;
21170;SDS011;10743;52.160;20.910;2024-02-14T13:33:14;6.57;;;2.60;;
21170;SDS011;10743;52.160;20.910;2024-02-14T13:35:42;4.73;;;2.33;;
21170;SDS011;10743;52.160;20.910;2024-02-14T13:38:09;2.40;;;2.10;;
21170;SDS011;10743;52.160;20.910;2024-02-14T13:40:36;4.80;;;2.50;;
21170;SDS011;10743;52.160;20.910;2024-02-14T13:43:03;6.40;;;2.70;;
21170;SDS011;10743;52.160;20.910;2024-02-14T13:45:39;7.33;;;3.00;;
21170;SDS011;10743;52.160;20.910;2024-02-14T13:48:08;5.77;;;2.47;;
21170;SDS011;10743;52.160;20.910;2024-02-14T13:50:37;6.63;;;2.90;;
21170;SDS011;10743;52.160;20.910;2024-02-14T13:53:05;6.67;;;2.90;;
21170;SDS011;10743;52.160;20.910;2024-02-14T13:55:33;7.47;;;2.83;;
21170;SDS011;10743;52.160;20.910;2024-02-14T13:58:00;11.00;;;2.63;;
21170;SDS011;10743;52.160;20.910;2024-02-14T14:00:27;11.20;;;3.70;;
21170;SDS011;10743;52.160;20.910;2024-02-14T14:02:55;7.57;;;3.90;;
21170;SDS011;10743;52.160;20.910;2024-02-14T14:05:22;5.90;;;3.10;;
21170;SDS011;10743;52.160;20.910;2024-02-14T14:07:50;8.57;;;3.30;;
21170;SDS011;10743;52.160;20.910;2024-02-14T14:10:25;6.60;;;3.60;;
21170;SDS011;10743;52.160;20.910;2024-02-14T14:12:55;5.03;;;2.97;;
21170;SDS011;10743;52.160;20.910;2024-02-14T14:15:22;4.90;;;2.90;;
21170;SDS011;10743;52.160;20.910;2024-02-14T14:17:50;7.77;;;3.03;;
21170;SDS011;10743;52.160;20.910;2024-02-14T14:20:18;6.57;;;3.10;;
21170;SDS011;10743;52.160;20.910;2024-02-14T14:22:46;6.40;;;3.43;;
21170;SDS011;10743;52.160;20.910;2024-02-14T14:25:14;6.03;;;2.97;;
21170;SDS011;10743;52.160;20.910;2024-02-14T14:27:41;5.63;;;2.90;;
21170;SDS011;10743;52.160;20.910;2024-02-14T14:30:09;6.73;;;3.23;;